METAR és
SPECI
METAR LHBP 051600Z 33010KT CAVOK 17/09 Q1020 NOSIG=
METAR LHBP 051530Z 33012KT 9999 FEW050CB FEW060 SCT080 18/10 Q1020 NOSIG=
METAR LHBP 051500Z 33013KT 9999 FEW050CB FEW060 SCT100 18/10 Q1020 NOSIG=
METAR LHBP 051430Z 33014KT CAVOK 19/09 Q1020 NOSIG=
METAR LHBP 051400Z 32008KT CAVOK 19/12 Q1020 NOSIG=
METAR LHBP 051330Z 27005KT CAVOK 17/11 Q1020 NOSIG=
METAR LHBP 051300Z 33010KT 9999 -SHRA FEW011 FEW022CB SCT026 15/10 Q1021 RETSRA NOSIG=
METAR LHBP 051230Z 07014G27KT 020V130 9999 -TSRA SCT038CB BKN060 17/07 Q1020 NOSIG=
METAR LHBP 051200Z 03004KT 9999 -SHRA SCT045CB SCT055 OVC090 19/08 Q1020 TEMPO -TSRA SCT040CB BKN055=
METAR LHBP 051130Z 36011KT 330V060 9999 -SHRA FEW045CB BKN055 19/08 Q1020 TEMPO -TSRA SCT040CB BKN055=
METAR LHBP 051100Z 04007KT 330V090 9999 FEW045CB SCT060 SCT100 22/06 Q1020 TEMPO -TSRA SCT040CB BKN055=
METAR LHBP 051030Z 34006KT 300V040 9999 FEW046TCU SCT050 SCT100 21/09 Q1020 TEMPO -TSRA SCT040CB BKN055=
METAR LHBP 051000Z 02006KT 330V080 CAVOK 21/09 Q1021 NOSIG=
METAR LHBP 050930Z 04006KT 010V080 9999 FEW048 SCT100 20/09 Q1021 NOSIG=
METAR LHBP 050900Z 03007KT 330V070 CAVOK 20/08 Q1021 NOSIG=
TAF
TAF LHBP 051100Z 0512/0612 01008KT CAVOK TEMPO 0512/0519 VRB20G30KT 4000 SHRA TSRA SCT015 SCT030CB BKN060 BECMG 0607/0610 06012KT=
GAMET
FAHU41 LHBM 051100
LHCC GAMET VALID 051200/051800 LHBP-
BUDAPEST FIR BLW FL100
SECN 1
SIGWX: ISOL TSRA
SIG CLD: ISOL BKN TCU CB 3000-4000/XXX FT AGL E OF E01900
ISOL BKN TCU CB 1500-2500/XXX FT AGL W OF E01900
SIGMETS APPLICABLE: NIL=
OMSZ: 2016. május 5. 12:44 (10:44  UTC)
[FAHU41]
AIRMET
Nincs érvényes távirat! 
WAHU41 LHBM 231545
LHCC AIRMET 02 VALID 231600/231800 LHBP-
LHCC BUDAPEST FIR ISOL TS OBS AT 1545Z W OF E02000
TOP ABV FL100 MOV NE NC=
OMSZ: 2016. április 23. 17:48 (15:48  UTC)
[WAHU41]
SIGMET
WSHU31 LHBM 051530
LHCC SIGMET 01 VALID 051530/051730 LHBP-
LHCC BUDAPEST FIR FRQ TS FCST WI N4545 E01800 - N4620 E01800
- N4620 E01900 - N4545 E01900 - N4620 E01800 TOP FL280 MOV
WSW NC=
OMSZ: 2016. május 5. 17:38 (15:38  UTC)
[WSHU31]
SIGMET
Vulkáni hamufelhő
Nincs érvényes távirat! 
WVHU31 LHBM 271515 CCA
LHCC SIGMET 03 VALID 271515/271800 LHBP-
LHCC BUDAPEST FIR EXERCISE VOLCEX12/01
CNL VA SIGMET 02 271200/271800
EXERCISE EXERCISE EXERCISE VOLCEX12/01=
OMSZ: 2015. április 14. 15:15 (13:15  UTC)
[WVHU31]